sensor_id;sensor_type;location;lat;lon;timestamp;temperature;humidity
16976;DHT22;8604;48.148;-1.786;2022-12-18T00:00:07;-1.80;99.90
16976;DHT22;8604;48.148;-1.786;2022-12-18T00:02:43;-1.80;99.90
16976;DHT22;8604;48.148;-1.786;2022-12-18T00:05:11;-1.80;99.90
16976;DHT22;8604;48.148;-1.786;2022-12-18T00:07:40;-1.80;99.90
16976;DHT22;8604;48.148;-1.786;2022-12-18T00:10:09;-1.80;99.90
16976;DHT22;8604;48.148;-1.786;2022-12-18T00:12:41;-1.80;99.90
16976;DHT22;8604;48.148;-1.786;2022-12-18T00:15:09;-1.80;99.90
16976;DHT22;8604;48.148;-1.786;2022-12-18T00:17:38;-1.80;99.90
16976;DHT22;8604;48.148;-1.786;2022-12-18T00:20:07;-1.80;99.90
16976;DHT22;8604;48.148;-1.786;2022-12-18T00:22:36;-1.90;99.90
16976;DHT22;8604;48.148;-1.786;2022-12-18T00:25:05;-1.80;99.90
16976;DHT22;8604;48.148;-1.786;2022-12-18T00:27:35;-1.90;99.90
16976;DHT22;8604;48.148;-1.786;2022-12-18T00:30:04;-1.90;99.90
16976;DHT22;8604;48.148;-1.786;2022-12-18T00:32:32;-1.80;99.90
16976;DHT22;8604;48.148;-1.786;2022-12-18T00:35:02;-1.80;99.90
16976;DHT22;8604;48.148;-1.786;2022-12-18T00:37:30;-1.80;99.90
16976;DHT22;8604;48.148;-1.786;2022-12-18T00:39:59;-1.90;99.90
16976;DHT22;8604;48.148;-1.786;2022-12-18T00:42:28;-1.90;99.90
16976;DHT22;8604;48.148;-1.786;2022-12-18T00:45:15;-1.90;99.90
16976;DHT22;8604;48.148;-1.786;2022-12-18T00:47:44;-1.90;99.90
16976;DHT22;8604;48.148;-1.786;2022-12-18T00:50:12;-1.80;99.90
16976;DHT22;8604;48.148;-1.786;2022-12-18T00:52:41;-1.80;99.90
16976;DHT22;8604;48.148;-1.786;2022-12-18T00:55:09;-1.80;99.90
16976;DHT22;8604;48.148;-1.786;2022-12-18T00:57:38;-1.80;99.90
16976;DHT22;8604;48.148;-1.786;2022-12-18T01:00:09;-1.80;99.90
16976;DHT22;8604;48.148;-1.786;2022-12-18T01:02:39;-1.80;99.90
16976;DHT22;8604;48.148;-1.786;2022-12-18T01:05:09;-1.80;99.90
16976;DHT22;8604;48.148;-1.786;2022-12-18T01:07:38;-1.80;99.90
16976;DHT22;8604;48.148;-1.786;2022-12-18T01:10:08;-1.80;99.90
16976;DHT22;8604;48.148;-1.786;2022-12-18T01:12:37;-1.80;99.90
16976;DHT22;8604;48.148;-1.786;2022-12-18T01:15:07;-1.80;99.90
16976;DHT22;8604;48.148;-1.786;2022-12-18T01:17:36;-1.80;99.90
16976;DHT22;8604;48.148;-1.786;2022-12-18T01:20:08;-1.90;99.90
16976;DHT22;8604;48.148;-1.786;2022-12-18T01:22:37;-1.80;99.90
16976;DHT22;8604;48.148;-1.786;2022-12-18T01:25:07;-1.80;99.90
16976;DHT22;8604;48.148;-1.786;2022-12-18T01:27:36;-1.80;99.90
16976;DHT22;8604;48.148;-1.786;2022-12-18T01:30:05;-1.80;99.90
16976;DHT22;8604;48.148;-1.786;2022-12-18T01:32:34;-1.80;99.90
16976;DHT22;8604;48.148;-1.786;2022-12-18T01:35:02;-1.80;99.90
16976;DHT22;8604;48.148;-1.786;2022-12-18T01:37:32;-1.80;99.90
16976;DHT22;8604;48.148;-1.786;2022-12-18T01:40:00;-1.80;99.90
16976;DHT22;8604;48.148;-1.786;2022-12-18T01:42:29;-1.80;99.90
16976;DHT22;8604;48.148;-1.786;2022-12-18T01:45:04;-1.80;99.90
16976;DHT22;8604;48.148;-1.786;2022-12-18T01:47:38;-1.80;99.90
16976;DHT22;8604;48.148;-1.786;2022-12-18T01:50:10;-1.80;99.90
16976;DHT22;8604;48.148;-1.786;2022-12-18T01:52:41;-1.80;99.90
16976;DHT22;8604;48.148;-1.786;2022-12-18T01:55:11;-1.80;99.90
16976;DHT22;8604;48.148;-1.786;2022-12-18T01:57:40;-1.80;99.90
16976;DHT22;8604;48.148;-1.786;2022-12-18T02:00:12;-1.80;99.90
16976;DHT22;8604;48.148;-1.786;2022-12-18T02:02:43;-1.80;99.90
16976;DHT22;8604;48.148;-1.786;2022-12-18T02:05:15;-1.80;99.90
16976;DHT22;8604;48.148;-1.786;2022-12-18T02:07:53;-1.80;99.90
16976;DHT22;8604;48.148;-1.786;2022-12-18T02:10:30;-1.80;99.90
16976;DHT22;8604;48.148;-1.786;2022-12-18T02:13:04;-1.80;99.90
16976;DHT22;8604;48.148;-1.786;2022-12-18T02:15:39;-1.80;99.90
16976;DHT22;8604;48.148;-1.786;2022-12-18T02:18:12;-1.80;99.90
16976;DHT22;8604;48.148;-1.786;2022-12-18T02:20:48;-1.80;99.90
16976;DHT22;8604;48.148;-1.786;2022-12-18T02:23:38;-1.80;99.90
16976;DHT22;8604;48.148;-1.786;2022-12-18T02:26:16;-1.80;99.90
16976;DHT22;8604;48.148;-1.786;2022-12-18T02:28:52;-1.80;99.90
16976;DHT22;8604;48.148;-1.786;2022-12-18T02:31:24;-1.80;99.90
16976;DHT22;8604;48.148;-1.786;2022-12-18T02:33:56;-1.80;99.90
16976;DHT22;8604;48.148;-1.786;2022-12-18T02:36:28;-1.80;99.90
16976;DHT22;8604;48.148;-1.786;2022-12-18T02:38:58;-1.70;99.90
16976;DHT22;8604;48.148;-1.786;2022-12-18T02:41:30;-1.70;99.90
16976;DHT22;8604;48.148;-1.786;2022-12-18T02:44:01;-1.70;99.90
16976;DHT22;8604;48.148;-1.786;2022-12-18T02:46:33;-1.70;99.90
16976;DHT22;8604;48.148;-1.786;2022-12-18T02:49:26;-1.70;99.90
16976;DHT22;8604;48.148;-1.786;2022-12-18T02:52:04;-1.80;99.90
16976;DHT22;8604;48.148;-1.786;2022-12-18T02:54:51;-1.80;99.90
16976;DHT22;8604;48.148;-1.786;2022-12-18T02:57:34;-1.70;99.90
16976;DHT22;8604;48.148;-1.786;2022-12-18T03:00:06;-1.70;99.90
16976;DHT22;8604;48.148;-1.786;2022-12-18T03:02:39;-1.70;99.90
16976;DHT22;8604;48.148;-1.786;2022-12-18T03:05:13;-1.70;99.90
16976;DHT22;8604;48.148;-1.786;2022-12-18T03:07:47;-1.70;99.90
16976;DHT22;8604;48.148;-1.786;2022-12-18T03:10:21;-1.70;99.90
16976;DHT22;8604;48.148;-1.786;2022-12-18T03:12:58;-1.70;99.90
16976;DHT22;8604;48.148;-1.786;2022-12-18T03:15:31;-1.70;99.90
16976;DHT22;8604;48.148;-1.786;2022-12-18T03:18:10;-1.70;99.90
16976;DHT22;8604;48.148;-1.786;2022-12-18T03:20:43;-1.70;99.90
16976;DHT22;8604;48.148;-1.786;2022-12-18T03:23:17;-1.60;99.90
16976;DHT22;8604;48.148;-1.786;2022-12-18T03:25:54;-1.70;99.90
16976;DHT22;8604;48.148;-1.786;2022-12-18T03:28:36;-1.60;99.90
16976;DHT22;8604;48.148;-1.786;2022-12-18T03:31:09;-1.60;99.90
16976;DHT22;8604;48.148;-1.786;2022-12-18T03:33:42;-1.60;99.90
16976;DHT22;8604;48.148;-1.786;2022-12-18T03:36:14;-1.60;99.90
16976;DHT22;8604;48.148;-1.786;2022-12-18T03:38:43;-1.50;99.90
16976;DHT22;8604;48.148;-1.786;2022-12-18T03:41:17;-1.50;99.90
16976;DHT22;8604;48.148;-1.786;2022-12-18T03:44:13;-1.50;99.90
16976;DHT22;8604;48.148;-1.786;2022-12-18T03:46:51;-1.50;99.90
16976;DHT22;8604;48.148;-1.786;2022-12-18T03:49:26;-1.40;99.90
16976;DHT22;8604;48.148;-1.786;2022-12-18T03:52:02;-1.40;99.90
16976;DHT22;8604;48.148;-1.786;2022-12-18T03:54:33;-1.40;99.90
16976;DHT22;8604;48.148;-1.786;2022-12-18T03:57:15;-1.30;99.90
16976;DHT22;8604;48.148;-1.786;2022-12-18T03:59:48;-1.30;99.90
16976;DHT22;8604;48.148;-1.786;2022-12-18T04:02:19;-1.30;99.90
16976;DHT22;8604;48.148;-1.786;2022-12-18T04:04:51;-1.30;99.90
16976;DHT22;8604;48.148;-1.786;2022-12-18T04:07:21;-1.30;99.90
16976;DHT22;8604;48.148;-1.786;2022-12-18T04:09:53;-1.30;99.90
16976;DHT22;8604;48.148;-1.786;2022-12-18T04:12:24;-1.30;99.90
16976;DHT22;8604;48.148;-1.786;2022-12-18T04:14:54;-1.20;99.90
16976;DHT22;8604;48.148;-1.786;2022-12-18T04:17:23;-1.20;99.90
16976;DHT22;8604;48.148;-1.786;2022-12-18T04:19:51;-1.20;99.90
16976;DHT22;8604;48.148;-1.786;2022-12-18T04:22:20;-1.20;99.90
16976;DHT22;8604;48.148;-1.786;2022-12-18T04:24:53;-1.20;99.90
16976;DHT22;8604;48.148;-1.786;2022-12-18T04:27:29;-1.20;99.90
16976;DHT22;8604;48.148;-1.786;2022-12-18T04:30:00;-1.20;99.90
16976;DHT22;8604;48.148;-1.786;2022-12-18T04:32:29;-1.10;99.90
16976;DHT22;8604;48.148;-1.786;2022-12-18T04:34:59;-1.10;99.90
16976;DHT22;8604;48.148;-1.786;2022-12-18T04:37:28;-1.10;99.90
16976;DHT22;8604;48.148;-1.786;2022-12-18T04:39:56;-1.00;99.90
16976;DHT22;8604;48.148;-1.786;2022-12-18T04:42:32;-1.10;99.90
16976;DHT22;8604;48.148;-1.786;2022-12-18T04:45:02;-1.10;99.90
16976;DHT22;8604;48.148;-1.786;2022-12-18T04:47:31;-1.10;99.90
16976;DHT22;8604;48.148;-1.786;2022-12-18T04:49:59;-1.10;99.90
16976;DHT22;8604;48.148;-1.786;2022-12-18T04:52:27;-1.10;99.90
16976;DHT22;8604;48.148;-1.786;2022-12-18T04:54:56;-1.10;99.90
16976;DHT22;8604;48.148;-1.786;2022-12-18T04:57:24;-1.10;99.90
16976;DHT22;8604;48.148;-1.786;2022-12-18T04:59:53;-1.00;99.90
16976;DHT22;8604;48.148;-1.786;2022-12-18T05:02:22;-1.00;99.90
16976;DHT22;8604;48.148;-1.786;2022-12-18T05:04:51;-1.10;99.90
16976;DHT22;8604;48.148;-1.786;2022-12-18T05:07:19;-1.00;99.90
16976;DHT22;8604;48.148;-1.786;2022-12-18T05:09:47;-1.00;99.90
16976;DHT22;8604;48.148;-1.786;2022-12-18T05:12:16;-1.00;99.90
16976;DHT22;8604;48.148;-1.786;2022-12-18T05:14:44;-1.00;99.90
16976;DHT22;8604;48.148;-1.786;2022-12-18T05:17:12;-1.00;99.90
16976;DHT22;8604;48.148;-1.786;2022-12-18T05:19:42;-0.90;99.90
16976;DHT22;8604;48.148;-1.786;2022-12-18T05:22:10;-0.90;99.90
16976;DHT22;8604;48.148;-1.786;2022-12-18T05:24:39;-0.90;99.90
16976;DHT22;8604;48.148;-1.786;2022-12-18T05:27:07;-0.90;99.90
16976;DHT22;8604;48.148;-1.786;2022-12-18T05:29:36;-0.90;99.90
16976;DHT22;8604;48.148;-1.786;2022-12-18T05:32:04;-0.90;99.90
16976;DHT22;8604;48.148;-1.786;2022-12-18T05:34:32;-0.90;99.90
16976;DHT22;8604;48.148;-1.786;2022-12-18T05:37:02;-0.90;99.90
16976;DHT22;8604;48.148;-1.786;2022-12-18T05:39:31;-0.80;99.90
16976;DHT22;8604;48.148;-1.786;2022-12-18T05:41:59;-0.80;99.90
16976;DHT22;8604;48.148;-1.786;2022-12-18T05:44:28;-0.80;99.90
16976;DHT22;8604;48.148;-1.786;2022-12-18T05:46:56;-0.80;99.90
16976;DHT22;8604;48.148;-1.786;2022-12-18T05:49:24;-0.80;99.90
16976;DHT22;8604;48.148;-1.786;2022-12-18T05:51:53;-0.80;99.90
16976;DHT22;8604;48.148;-1.786;2022-12-18T05:54:23;-0.80;99.90
16976;DHT22;8604;48.148;-1.786;2022-12-18T05:56:51;-0.80;99.90
16976;DHT22;8604;48.148;-1.786;2022-12-18T05:59:19;-0.70;99.90
16976;DHT22;8604;48.148;-1.786;2022-12-18T06:01:48;-0.80;99.90
16976;DHT22;8604;48.148;-1.786;2022-12-18T06:04:16;-0.70;99.90
16976;DHT22;8604;48.148;-1.786;2022-12-18T06:06:45;-0.70;99.90
16976;DHT22;8604;48.148;-1.786;2022-12-18T06:09:13;-0.70;99.90
16976;DHT22;8604;48.148;-1.786;2022-12-18T06:11:43;-0.70;99.90
16976;DHT22;8604;48.148;-1.786;2022-12-18T06:14:11;-0.60;99.90
16976;DHT22;8604;48.148;-1.786;2022-12-18T06:16:39;-0.60;99.90
16976;DHT22;8604;48.148;-1.786;2022-12-18T06:19:12;-0.60;99.90
16976;DHT22;8604;48.148;-1.786;2022-12-18T06:21:43;-0.60;99.90
16976;DHT22;8604;48.148;-1.786;2022-12-18T06:24:11;-0.60;99.90
16976;DHT22;8604;48.148;-1.786;2022-12-18T06:26:39;-0.50;99.90
16976;DHT22;8604;48.148;-1.786;2022-12-18T06:29:09;-0.50;99.90
16976;DHT22;8604;48.148;-1.786;2022-12-18T06:31:37;-0.50;99.90
16976;DHT22;8604;48.148;-1.786;2022-12-18T06:34:06;-0.50;99.90
16976;DHT22;8604;48.148;-1.786;2022-12-18T06:36:34;-0.50;99.90
16976;DHT22;8604;48.148;-1.786;2022-12-18T06:39:03;-0.50;99.90
16976;DHT22;8604;48.148;-1.786;2022-12-18T06:41:32;-0.50;99.90
16976;DHT22;8604;48.148;-1.786;2022-12-18T06:44:00;-0.50;99.90
16976;DHT22;8604;48.148;-1.786;2022-12-18T06:46:30;-0.50;99.90
16976;DHT22;8604;48.148;-1.786;2022-12-18T06:48:59;-0.50;99.90
16976;DHT22;8604;48.148;-1.786;2022-12-18T06:51:27;-0.40;99.90
16976;DHT22;8604;48.148;-1.786;2022-12-18T06:53:55;-0.40;99.90
16976;DHT22;8604;48.148;-1.786;2022-12-18T06:56:24;-0.40;99.90
16976;DHT22;8604;48.148;-1.786;2022-12-18T06:58:52;-0.40;99.90
16976;DHT22;8604;48.148;-1.786;2022-12-18T07:01:21;-0.40;99.90
16976;DHT22;8604;48.148;-1.786;2022-12-18T07:03:53;-0.40;99.90
16976;DHT22;8604;48.148;-1.786;2022-12-18T07:06:23;-0.30;99.90
16976;DHT22;8604;48.148;-1.786;2022-12-18T07:08:53;-0.30;99.90
16976;DHT22;8604;48.148;-1.786;2022-12-18T07:11:22;-0.30;99.90
16976;DHT22;8604;48.148;-1.786;2022-12-18T07:13:52;-0.30;99.90
16976;DHT22;8604;48.148;-1.786;2022-12-18T07:16:21;-0.30;99.90
16976;DHT22;8604;48.148;-1.786;2022-12-18T07:18:54;-0.30;99.90
16976;DHT22;8604;48.148;-1.786;2022-12-18T07:21:24;-0.30;99.90
16976;DHT22;8604;48.148;-1.786;2022-12-18T07:23:52;-0.20;99.90
16976;DHT22;8604;48.148;-1.786;2022-12-18T07:26:21;-0.20;99.90
16976;DHT22;8604;48.148;-1.786;2022-12-18T07:28:50;-0.20;99.90
16976;DHT22;8604;48.148;-1.786;2022-12-18T07:31:20;-0.10;99.90
16976;DHT22;8604;48.148;-1.786;2022-12-18T07:33:49;-0.10;99.90
16976;DHT22;8604;48.148;-1.786;2022-12-18T07:36:20;-0.10;99.90
16976;DHT22;8604;48.148;-1.786;2022-12-18T07:38:48;-0.10;99.90
16976;DHT22;8604;48.148;-1.786;2022-12-18T07:41:19;-0.10;99.90
16976;DHT22;8604;48.148;-1.786;2022-12-18T07:43:48;-0.10;99.90
16976;DHT22;8604;48.148;-1.786;2022-12-18T07:46:16;-0.10;99.90
16976;DHT22;8604;48.148;-1.786;2022-12-18T07:48:45;0.00;99.90
16976;DHT22;8604;48.148;-1.786;2022-12-18T07:51:16;0.00;99.90
16976;DHT22;8604;48.148;-1.786;2022-12-18T07:53:47;0.00;99.90
16976;DHT22;8604;48.148;-1.786;2022-12-18T07:56:19;0.00;99.90
16976;DHT22;8604;48.148;-1.786;2022-12-18T07:58:57;0.00;99.90
16976;DHT22;8604;48.148;-1.786;2022-12-18T08:01:26;0.00;99.90
16976;DHT22;8604;48.148;-1.786;2022-12-18T08:03:55;0.10;99.90
16976;DHT22;8604;48.148;-1.786;2022-12-18T08:06:23;0.10;99.90
16976;DHT22;8604;48.148;-1.786;2022-12-18T08:08:54;0.10;99.90
16976;DHT22;8604;48.148;-1.786;2022-12-18T08:11:25;0.20;99.90
16976;DHT22;8604;48.148;-1.786;2022-12-18T08:13:54;0.20;99.90
16976;DHT22;8604;48.148;-1.786;2022-12-18T08:16:22;0.20;99.90
16976;DHT22;8604;48.148;-1.786;2022-12-18T08:18:52;0.30;99.90
16976;DHT22;8604;48.148;-1.786;2022-12-18T08:21:22;0.30;99.90
16976;DHT22;8604;48.148;-1.786;2022-12-18T08:23:53;0.30;99.90
16976;DHT22;8604;48.148;-1.786;2022-12-18T08:26:23;0.30;99.90
16976;DHT22;8604;48.148;-1.786;2022-12-18T08:28:53;0.30;99.90
16976;DHT22;8604;48.148;-1.786;2022-12-18T08:31:22;0.40;99.90
16976;DHT22;8604;48.148;-1.786;2022-12-18T08:33:51;0.40;99.90
16976;DHT22;8604;48.148;-1.786;2022-12-18T08:36:21;0.50;99.90
16976;DHT22;8604;48.148;-1.786;2022-12-18T08:38:50;0.50;99.90
16976;DHT22;8604;48.148;-1.786;2022-12-18T08:41:20;0.50;99.90
16976;DHT22;8604;48.148;-1.786;2022-12-18T08:43:49;0.50;99.90
16976;DHT22;8604;48.148;-1.786;2022-12-18T08:46:36;0.50;99.90
16976;DHT22;8604;48.148;-1.786;2022-12-18T08:49:05;0.60;99.90
16976;DHT22;8604;48.148;-1.786;2022-12-18T08:51:34;0.60;99.90
16976;DHT22;8604;48.148;-1.786;2022-12-18T08:54:04;0.60;99.90
16976;DHT22;8604;48.148;-1.786;2022-12-18T08:56:34;0.70;99.90
16976;DHT22;8604;48.148;-1.786;2022-12-18T08:59:02;0.70;99.90
16976;DHT22;8604;48.148;-1.786;2022-12-18T09:01:31;0.70;99.90
16976;DHT22;8604;48.148;-1.786;2022-12-18T09:04:01;0.80;99.90
16976;DHT22;8604;48.148;-1.786;2022-12-18T09:06:31;0.80;99.90
16976;DHT22;8604;48.148;-1.786;2022-12-18T09:08:59;0.80;99.90
16976;DHT22;8604;48.148;-1.786;2022-12-18T09:11:28;0.80;99.90
16976;DHT22;8604;48.148;-1.786;2022-12-18T09:13:59;0.80;99.90
16976;DHT22;8604;48.148;-1.786;2022-12-18T09:16:29;0.90;99.90
16976;DHT22;8604;48.148;-1.786;2022-12-18T09:18:59;0.90;99.90
16976;DHT22;8604;48.148;-1.786;2022-12-18T09:21:30;0.90;99.90
16976;DHT22;8604;48.148;-1.786;2022-12-18T09:24:03;0.90;99.90
16976;DHT22;8604;48.148;-1.786;2022-12-18T09:26:35;0.90;99.90
16976;DHT22;8604;48.148;-1.786;2022-12-18T09:29:05;1.00;99.90
16976;DHT22;8604;48.148;-1.786;2022-12-18T09:31:35;1.00;99.90
16976;DHT22;8604;48.148;-1.786;2022-12-18T09:34:03;1.00;99.90
16976;DHT22;8604;48.148;-1.786;2022-12-18T09:36:31;1.00;99.90
16976;DHT22;8604;48.148;-1.786;2022-12-18T09:39:00;1.00;99.90
16976;DHT22;8604;48.148;-1.786;2022-12-18T09:41:45;1.00;99.90
16976;DHT22;8604;48.148;-1.786;2022-12-18T09:44:24;1.10;99.90
16976;DHT22;8604;48.148;-1.786;2022-12-18T09:47:01;1.10;99.90
16976;DHT22;8604;48.148;-1.786;2022-12-18T09:49:42;1.10;99.90
16976;DHT22;8604;48.148;-1.786;2022-12-18T09:52:18;1.10;99.90
16976;DHT22;8604;48.148;-1.786;2022-12-18T09:54:50;1.20;99.90
16976;DHT22;8604;48.148;-1.786;2022-12-18T09:57:21;1.20;99.90
16976;DHT22;8604;48.148;-1.786;2022-12-18T09:59:54;1.20;99.90
16976;DHT22;8604;48.148;-1.786;2022-12-18T10:02:25;1.30;99.90
16976;DHT22;8604;48.148;-1.786;2022-12-18T10:05:03;1.30;99.90
16976;DHT22;8604;48.148;-1.786;2022-12-18T10:07:45;1.30;99.90
16976;DHT22;8604;48.148;-1.786;2022-12-18T10:10:23;1.30;99.90
16976;DHT22;8604;48.148;-1.786;2022-12-18T10:13:00;1.40;99.90
16976;DHT22;8604;48.148;-1.786;2022-12-18T10:15:37;1.40;99.90
16976;DHT22;8604;48.148;-1.786;2022-12-18T10:18:22;1.40;99.90
16976;DHT22;8604;48.148;-1.786;2022-12-18T10:20:53;1.50;99.90
16976;DHT22;8604;48.148;-1.786;2022-12-18T10:23:28;1.50;99.90
16976;DHT22;8604;48.148;-1.786;2022-12-18T10:26:02;1.50;99.90
16976;DHT22;8604;48.148;-1.786;2022-12-18T10:28:33;1.50;99.90
16976;DHT22;8604;48.148;-1.786;2022-12-18T10:31:13;1.50;99.90
16976;DHT22;8604;48.148;-1.786;2022-12-18T10:33:43;1.60;99.90
16976;DHT22;8604;48.148;-1.786;2022-12-18T10:36:11;1.60;99.90
16976;DHT22;8604;48.148;-1.786;2022-12-18T10:38:40;1.60;99.90
16976;DHT22;8604;48.148;-1.786;2022-12-18T10:41:24;1.60;99.90
16976;DHT22;8604;48.148;-1.786;2022-12-18T10:44:14;1.70;99.90
16976;DHT22;8604;48.148;-1.786;2022-12-18T10:46:46;1.70;99.90
16976;DHT22;8604;48.148;-1.786;2022-12-18T10:49:26;1.70;99.90
16976;DHT22;8604;48.148;-1.786;2022-12-18T10:52:05;1.70;99.90
16976;DHT22;8604;48.148;-1.786;2022-12-18T10:54:35;1.80;99.90
16976;DHT22;8604;48.148;-1.786;2022-12-18T10:57:32;1.80;99.90
16976;DHT22;8604;48.148;-1.786;2022-12-18T11:00:21;1.80;99.90
16976;DHT22;8604;48.148;-1.786;2022-12-18T11:02:51;1.80;99.90
16976;DHT22;8604;48.148;-1.786;2022-12-18T11:05:29;1.90;99.90
16976;DHT22;8604;48.148;-1.786;2022-12-18T11:07:58;1.90;99.90
16976;DHT22;8604;48.148;-1.786;2022-12-18T11:10:31;1.90;99.90
16976;DHT22;8604;48.148;-1.786;2022-12-18T11:13:11;1.90;99.90
16976;DHT22;8604;48.148;-1.786;2022-12-18T11:15:41;2.00;99.90
16976;DHT22;8604;48.148;-1.786;2022-12-18T11:18:19;2.00;99.90
16976;DHT22;8604;48.148;-1.786;2022-12-18T11:20:51;2.00;99.90
16976;DHT22;8604;48.148;-1.786;2022-12-18T11:23:25;2.00;99.90
16976;DHT22;8604;48.148;-1.786;2022-12-18T11:25:56;2.10;99.90
16976;DHT22;8604;48.148;-1.786;2022-12-18T11:28:36;2.10;99.90
16976;DHT22;8604;48.148;-1.786;2022-12-18T11:31:26;2.10;99.90
16976;DHT22;8604;48.148;-1.786;2022-12-18T11:34:03;2.20;99.90
16976;DHT22;8604;48.148;-1.786;2022-12-18T11:36:53;2.20;99.90
16976;DHT22;8604;48.148;-1.786;2022-12-18T11:39:30;2.20;99.90
16976;DHT22;8604;48.148;-1.786;2022-12-18T11:42:03;2.20;99.90
16976;DHT22;8604;48.148;-1.786;2022-12-18T11:44:45;2.30;99.90
16976;DHT22;8604;48.148;-1.786;2022-12-18T11:47:23;2.30;99.90
16976;DHT22;8604;48.148;-1.786;2022-12-18T11:50:00;2.40;99.90
16976;DHT22;8604;48.148;-1.786;2022-12-18T11:52:33;2.40;99.90
16976;DHT22;8604;48.148;-1.786;2022-12-18T11:55:11;2.40;99.90
16976;DHT22;8604;48.148;-1.786;2022-12-18T11:57:45;2.40;99.90
16976;DHT22;8604;48.148;-1.786;2022-12-18T12:00:20;2.40;99.90
16976;DHT22;8604;48.148;-1.786;2022-12-18T12:03:19;2.40;99.90
16976;DHT22;8604;48.148;-1.786;2022-12-18T12:06:01;2.40;99.90
16976;DHT22;8604;48.148;-1.786;2022-12-18T12:08:40;2.50;99.90
16976;DHT22;8604;48.148;-1.786;2022-12-18T12:11:18;2.60;99.90
16976;DHT22;8604;48.148;-1.786;2022-12-18T12:14:02;2.60;99.90
16976;DHT22;8604;48.148;-1.786;2022-12-18T12:16:39;2.60;99.90
16976;DHT22;8604;48.148;-1.786;2022-12-18T12:19:22;2.70;99.90
16976;DHT22;8604;48.148;-1.786;2022-12-18T12:22:00;2.70;99.90
16976;DHT22;8604;48.148;-1.786;2022-12-18T12:24:38;2.70;99.90
16976;DHT22;8604;48.148;-1.786;2022-12-18T12:27:16;2.80;99.90
16976;DHT22;8604;48.148;-1.786;2022-12-18T12:29:55;2.80;99.90
16976;DHT22;8604;48.148;-1.786;2022-12-18T12:32:32;2.80;99.90
16976;DHT22;8604;48.148;-1.786;2022-12-18T12:35:11;2.90;99.90
16976;DHT22;8604;48.148;-1.786;2022-12-18T12:37:56;2.90;99.90
16976;DHT22;8604;48.148;-1.786;2022-12-18T12:40:28;3.00;99.90
16976;DHT22;8604;48.148;-1.786;2022-12-18T12:43:31;3.00;99.90
16976;DHT22;8604;48.148;-1.786;2022-12-18T12:46:04;3.00;99.90
16976;DHT22;8604;48.148;-1.786;2022-12-18T12:48:46;3.00;99.90
16976;DHT22;8604;48.148;-1.786;2022-12-18T12:51:19;3.00;99.90
16976;DHT22;8604;48.148;-1.786;2022-12-18T12:53:50;3.10;99.90
16976;DHT22;8604;48.148;-1.786;2022-12-18T12:56:20;3.10;99.90
16976;DHT22;8604;48.148;-1.786;2022-12-18T12:58:57;3.10;99.90
16976;DHT22;8604;48.148;-1.786;2022-12-18T13:01:34;3.20;99.90
16976;DHT22;8604;48.148;-1.786;2022-12-18T13:04:14;3.30;99.90
16976;DHT22;8604;48.148;-1.786;2022-12-18T13:06:48;3.30;99.90
16976;DHT22;8604;48.148;-1.786;2022-12-18T13:09:20;3.30;99.90
16976;DHT22;8604;48.148;-1.786;2022-12-18T13:11:48;3.40;99.90
16976;DHT22;8604;48.148;-1.786;2022-12-18T13:14:36;3.40;99.90
16976;DHT22;8604;48.148;-1.786;2022-12-18T13:17:24;3.40;99.90
16976;DHT22;8604;48.148;-1.786;2022-12-18T13:20:08;3.40;99.90
16976;DHT22;8604;48.148;-1.786;2022-12-18T13:22:42;3.50;99.90
16976;DHT22;8604;48.148;-1.786;2022-12-18T13:25:31;3.50;99.90
16976;DHT22;8604;48.148;-1.786;2022-12-18T13:28:09;3.50;99.90
16976;DHT22;8604;48.148;-1.786;2022-12-18T13:30:44;3.50;99.90
16976;DHT22;8604;48.148;-1.786;2022-12-18T13:33:41;3.60;99.90
16976;DHT22;8604;48.148;-1.786;2022-12-18T13:36:32;3.60;99.90
16976;DHT22;8604;48.148;-1.786;2022-12-18T13:39:24;3.60;99.90
16976;DHT22;8604;48.148;-1.786;2022-12-18T13:42:37;3.60;99.90
16976;DHT22;8604;48.148;-1.786;2022-12-18T13:45:38;3.60;99.90
16976;DHT22;8604;48.148;-1.786;2022-12-18T13:48:19;3.70;99.90
16976;DHT22;8604;48.148;-1.786;2022-12-18T13:50:55;3.80;99.90
16976;DHT22;8604;48.148;-1.786;2022-12-18T13:53:27;3.80;99.90
16976;DHT22;8604;48.148;-1.786;2022-12-18T13:55:58;3.80;99.90
16976;DHT22;8604;48.148;-1.786;2022-12-18T13:58:28;3.80;99.90
16976;DHT22;8604;48.148;-1.786;2022-12-18T14:00:56;3.90;99.90
16976;DHT22;8604;48.148;-1.786;2022-12-18T14:03:28;3.90;99.90
16976;DHT22;8604;48.148;-1.786;2022-12-18T14:06:01;3.90;99.90
16976;DHT22;8604;48.148;-1.786;2022-12-18T14:08:38;4.00;99.90
16976;DHT22;8604;48.148;-1.786;2022-12-18T14:11:19;4.00;99.90
16976;DHT22;8604;48.148;-1.786;2022-12-18T14:13:50;4.00;99.90
16976;DHT22;8604;48.148;-1.786;2022-12-18T14:16:18;4.10;99.90
16976;DHT22;8604;48.148;-1.786;2022-12-18T14:18:49;4.10;99.90
16976;DHT22;8604;48.148;-1.786;2022-12-18T14:21:25;4.10;99.90
16976;DHT22;8604;48.148;-1.786;2022-12-18T14:24:12;4.20;99.90
16976;DHT22;8604;48.148;-1.786;2022-12-18T14:26:44;4.20;99.90
16976;DHT22;8604;48.148;-1.786;2022-12-18T14:29:27;4.30;99.90
16976;DHT22;8604;48.148;-1.786;2022-12-18T14:32:10;4.40;99.90
16976;DHT22;8604;48.148;-1.786;2022-12-18T14:34:45;4.50;99.90
16976;DHT22;8604;48.148;-1.786;2022-12-18T14:37:15;4.50;99.90
16976;DHT22;8604;48.148;-1.786;2022-12-18T14:39:55;4.60;99.90
16976;DHT22;8604;48.148;-1.786;2022-12-18T14:42:26;4.60;99.90
16976;DHT22;8604;48.148;-1.786;2022-12-18T14:48:16;4.60;99.90
16976;DHT22;8604;48.148;-1.786;2022-12-18T14:51:01;4.70;99.90
16976;DHT22;8604;48.148;-1.786;2022-12-18T14:53:36;4.70;99.90
16976;DHT22;8604;48.148;-1.786;2022-12-18T14:56:15;4.80;99.90
16976;DHT22;8604;48.148;-1.786;2022-12-18T14:58:46;4.80;99.90
16976;DHT22;8604;48.148;-1.786;2022-12-18T15:01:19;4.90;99.90
16976;DHT22;8604;48.148;-1.786;2022-12-18T15:03:50;4.90;99.90
16976;DHT22;8604;48.148;-1.786;2022-12-18T15:06:29;4.90;99.90
16976;DHT22;8604;48.148;-1.786;2022-12-18T15:08:59;4.90;99.90
16976;DHT22;8604;48.148;-1.786;2022-12-18T15:11:42;4.90;99.90
16976;DHT22;8604;48.148;-1.786;2022-12-18T15:14:39;5.00;99.90
16976;DHT22;8604;48.148;-1.786;2022-12-18T15:17:17;5.00;99.90
16976;DHT22;8604;48.148;-1.786;2022-12-18T15:19:48;5.00;99.90
16976;DHT22;8604;48.148;-1.786;2022-12-18T15:22:25;5.00;99.90
16976;DHT22;8604;48.148;-1.786;2022-12-18T15:24:55;5.00;99.90
16976;DHT22;8604;48.148;-1.786;2022-12-18T15:27:27;5.00;99.90
16976;DHT22;8604;48.148;-1.786;2022-12-18T15:30:18;5.10;99.90
16976;DHT22;8604;48.148;-1.786;2022-12-18T15:32:47;5.00;99.90
16976;DHT22;8604;48.148;-1.786;2022-12-18T15:35:19;5.10;99.90
16976;DHT22;8604;48.148;-1.786;2022-12-18T15:37:48;5.10;99.90
16976;DHT22;8604;48.148;-1.786;2022-12-18T15:40:19;5.10;99.90
16976;DHT22;8604;48.148;-1.786;2022-12-18T15:42:48;5.10;99.90
16976;DHT22;8604;48.148;-1.786;2022-12-18T15:45:34;5.10;99.90
16976;DHT22;8604;48.148;-1.786;2022-12-18T15:48:09;5.10;99.90
16976;DHT22;8604;48.148;-1.786;2022-12-18T15:50:40;5.20;99.90
16976;DHT22;8604;48.148;-1.786;2022-12-18T15:53:09;5.20;99.90
16976;DHT22;8604;48.148;-1.786;2022-12-18T15:55:37;5.30;99.90
16976;DHT22;8604;48.148;-1.786;2022-12-18T15:58:27;5.30;99.90
16976;DHT22;8604;48.148;-1.786;2022-12-18T16:00:56;5.30;99.90
16976;DHT22;8604;48.148;-1.786;2022-12-18T16:03:25;5.40;99.90
16976;DHT22;8604;48.148;-1.786;2022-12-18T16:05:55;5.40;99.90
16976;DHT22;8604;48.148;-1.786;2022-12-18T16:08:26;5.40;99.90
16976;DHT22;8604;48.148;-1.786;2022-12-18T16:10:54;5.40;99.90
16976;DHT22;8604;48.148;-1.786;2022-12-18T16:13:23;5.40;99.90
16976;DHT22;8604;48.148;-1.786;2022-12-18T16:15:51;5.40;99.90
16976;DHT22;8604;48.148;-1.786;2022-12-18T16:18:19;5.50;99.90